Time;durP1;ratioP1;P1;durP2;ratioP2;P2;SDS_P1;SDS_P2;PMS_P1;PMS_P2;Temp;Humidity;BMP_temperature;BMP_pressure;BME280_temperature;BME280_humidity;BME280_pressure;Samples;Min_cycle;Max_cycle;Signal;HPM_P1;HPM_P2
2022/09/18 00:01:23;;;;;;;1.77;1.03;;;;;;;12.86;64.49;100746.03;4884554;28;97095;-49
2022/09/18 00:03:50;;;;;;;3.43;0.60;;;;;;;12.82;64.66;100745.53;4871656;28;97114;-49
2022/09/18 00:06:18;;;;;;;1.50;0.63;;;;;;;12.77;64.66;100743.53;4886975;28;96740;-50
2022/09/18 00:08:44;;;;;;;6.07;1.03;;;;;;;12.73;64.66;100735.50;4892891;28;97477;-50
2022/09/18 00:11:12;;;;;;;2.20;0.90;;;;;;;12.71;64.63;100740.78;4878886;28;97208;-47
2022/09/18 00:13:39;;;;;;;5.73;0.90;;;;;;;12.68;64.69;100736.28;4890548;28;97066;-48
2022/09/18 00:16:07;;;;;;;2.80;0.90;;;;;;;12.67;64.64;100731.25;4871372;28;97360;-48
2022/09/18 00:18:33;;;;;;;4.50;0.80;;;;;;;12.65;64.57;100736.53;4878305;28;97117;-48
2022/09/18 00:21:07;;;;;;;3.00;1.03;;;;;;;12.64;64.56;100733.03;4897992;28;97541;-48
2022/09/18 00:23:33;;;;;;;1.67;0.77;;;;;;;12.61;64.59;100727.75;4874796;28;97238;-50
2022/09/18 00:25:58;;;;;;;6.50;1.10;;;;;;;12.60;64.65;100726.28;4889536;28;96802;-48
2022/09/18 00:28:24;;;;;;;3.03;0.70;;;;;;;12.57;64.63;100730.78;4883930;28;96767;-49
2022/09/18 00:30:49;;;;;;;4.53;0.90;;;;;;;12.56;64.52;100728.50;4881304;28;111082;-50
2022/09/18 00:33:14;;;;;;;3.60;1.13;;;;;;;12.54;64.70;100731.03;4882503;28;108048;-49
2022/09/18 00:35:43;;;;;;;5.40;1.20;;;;;;;12.55;64.52;100729.78;4873742;28;107971;-48
2022/09/18 00:38:09;;;;;;;5.43;0.87;;;;;;;12.52;64.66;100728.78;4892985;28;97240;-50
2022/09/18 00:40:34;;;;;;;3.30;0.70;;;;;;;12.52;64.59;100737.06;4888036;28;98557;-49
2022/09/18 00:43:19;;;;;;;5.80;1.10;;;;;;;12.53;64.99;100738.56;4893027;28;98562;-49
2022/09/18 00:45:51;;;;;;;8.43;1.20;;;;;;;12.54;64.86;100737.31;4892868;28;97519;-49
2022/09/18 00:48:17;;;;;;;5.60;1.00;;;;;;;12.52;64.84;100741.81;4883365;28;97739;-49
2022/09/18 00:50:43;;;;;;;3.33;0.80;;;;;;;12.53;64.95;100743.34;4887373;28;96968;-49
2022/09/18 00:53:08;;;;;;;9.60;0.93;;;;;;;12.54;64.79;100739.31;4876583;28;97022;-50
2022/09/18 00:55:39;;;;;;;3.77;0.63;;;;;;;12.55;64.89;100746.34;4883013;28;96740;-49
2022/09/18 00:58:04;;;;;;;5.90;0.73;;;;;;;12.50;64.74;100744.31;4889024;28;96750;-49
2022/09/18 01:00:31;;;;;;;3.53;1.10;;;;;;;12.50;64.75;100744.31;4878732;28;97707;-50
2022/09/18 01:02:58;;;;;;;3.33;0.67;;;;;;;12.48;64.93;100753.13;4895753;28;97485;-50
2022/09/18 01:05:49;;;;;;;5.80;1.00;;;;;;;12.49;64.74;100748.34;4887514;28;97178;-52
2022/09/18 01:08:38;;;;;;;1.97;0.87;;;;;;;12.48;65.05;100753.13;4878444;28;96945;-49
2022/09/18 01:11:12;;;;;;;2.90;0.80;;;;;;;12.45;64.81;100754.09;4888251;28;102323;-49
2022/09/18 01:14:14;;;;;;;7.40;0.73;;;;;;;12.47;65.27;100761.91;4888718;28;98373;-50
2022/09/18 01:17:21;;;;;;;1.27;0.60;;;;;;;12.46;65.26;100766.66;4888751;28;96699;-49
2022/09/18 01:20:08;;;;;;;4.70;0.90;;;;;;;12.47;64.89;100768.16;4886785;28;97741;-49
2022/09/18 01:22:55;;;;;;;3.37;0.70;;;;;;;12.50;65.13;100769.16;4896477;28;101953;-49
2022/09/18 01:25:26;;;;;;;2.20;0.80;;;;;;;12.51;64.72;100762.41;4886335;28;100094;-49
2022/09/18 01:28:26;;;;;;;2.80;0.67;;;;;;;12.54;65.17;100761.38;4890953;28;97019;-49
2022/09/18 01:30:57;;;;;;;2.00;0.83;;;;;;;12.52;65.02;100761.13;4887421;28;97487;-48
2022/09/18 01:34:00;;;;;;;2.00;0.60;;;;;;;12.54;65.44;100761.38;4874466;28;97017;-48
2022/09/18 01:36:30;;;;;;;2.47;0.83;;;;;;;12.57;65.18;100763.13;4868334;28;103172;-48
2022/09/18 01:39:07;;;;;;;2.00;0.70;;;;;;;12.60;65.04;100762.16;4879521;28;98919;-49
2022/09/18 01:41:35;;;;;;;1.40;0.50;;;;;;;12.59;64.78;100766.91;4878778;28;96934;-48
2022/09/18 01:44:09;;;;;;;2.20;0.60;;;;;;;12.60;64.75;100759.38;4896476;28;96923;-48
2022/09/18 01:46:38;;;;;;;2.10;0.70;;;;;;;12.60;64.85;100765.63;4883799;28;97203;-47
2022/09/18 01:49:08;;;;;;;3.30;0.77;;;;;;;12.58;64.90;100759.88;4893493;28;96799;-52
2022/09/18 01:51:54;;;;;;;2.93;1.20;;;;;;;12.59;65.23;100749.59;4889294;28;97461;-51
2022/09/18 01:54:27;;;;;;;0.77;0.60;;;;;;;12.55;65.02;100747.09;4887312;28;101942;-49
2022/09/18 01:57:05;;;;;;;4.20;1.10;;;;;;;12.55;65.17;100744.34;4877305;28;97934;-51
2022/09/18 01:59:36;;;;;;;3.50;0.73;;;;;;;12.53;64.90;100751.59;4893703;28;97171;-48
2022/09/18 02:02:07;;;;;;;4.53;0.70;;;;;;;12.52;64.82;100747.31;4884128;28;97546;-48
2022/09/18 02:04:37;;;;;;;2.60;0.63;;;;;;;12.52;65.00;100741.81;4888760;28;97046;-48
2022/09/18 02:07:02;;;;;;;2.77;0.73;;;;;;;12.50;65.10;100745.09;4886232;28;97625;-51
2022/09/18 02:09:29;;;;;;;4.40;0.90;;;;;;;12.51;65.03;100746.59;4876944;28;97045;-53
2022/09/18 02:11:57;;;;;;;3.20;0.70;;;;;;;12.52;65.08;100747.31;4888718;28;96958;-48
2022/09/18 02:14:32;;;;;;;2.47;0.80;;;;;;;12.52;65.06;100750.09;4876093;28;97636;-48
2022/09/18 02:17:02;;;;;;;2.40;0.57;;;;;;;12.49;64.96;100748.34;4888338;28;97681;-48
2022/09/18 02:19:32;;;;;;;2.20;0.80;;;;;;;12.49;64.92;100754.59;4870144;28;97173;-48
2022/09/18 02:22:02;;;;;;;3.83;0.73;;;;;;;12.49;64.96;100756.63;4894155;28;97415;-49
2022/09/18 02:24:32;;;;;;;4.37;0.83;;;;;;;12.49;64.96;100749.09;4880819;28;101974;-49
2022/09/18 02:27:00;;;;;;;3.97;0.80;;;;;;;12.47;65.08;100748.84;4879027;28;97223;-50
2022/09/18 02:29:26;;;;;;;3.13;0.60;;;;;;;12.47;65.12;100754.34;4889490;28;97231;-52
2022/09/18 02:31:52;;;;;;;2.70;1.07;;;;;;;12.46;65.00;100743.84;4877952;28;96871;-48
2022/09/18 02:34:18;;;;;;;2.00;0.80;;;;;;;12.45;65.08;100743.06;4885135;28;97643;-48
2022/09/18 02:37:11;;;;;;;6.80;0.70;;;;;;;12.44;65.15;100751.84;4885932;28;101359;-48
2022/09/18 02:39:39;;;;;;;1.30;0.70;;;;;;;12.41;65.01;100742.56;4882321;28;99263;-52
2022/09/18 02:42:24;;;;;;;1.00;0.60;;;;;;;12.38;65.36;100740.09;4880085;28;96950;-50
2022/09/18 02:44:55;;;;;;;2.10;0.83;;;;;;;12.34;64.90;100743.06;4885761;28;96887;-52
2022/09/18 02:47:46;;;;;;;3.80;0.73;;;;;;;12.36;65.21;100737.06;4877832;28;97496;-52
2022/09/18 02:50:17;;;;;;;8.73;1.50;;;;;;;12.33;65.25;100730.56;4894844;28;97465;-50
2022/09/18 02:53:01;;;;;;;1.80;0.70;;;;;;;12.33;65.33;100729.78;4879033;28;97698;-49
2022/09/18 02:55:32;;;;;;;5.27;0.80;;;;;;;12.31;64.91;100735.06;4873658;28;100867;-51
2022/09/18 02:58:19;;;;;;;4.97;1.20;;;;;;;12.30;65.33;100733.53;4885765;28;97466;-54
2022/09/18 03:00:47;;;;;;;1.70;0.90;;;;;;;12.30;65.20;100739.06;4874128;28;97516;-49
2022/09/18 03:03:16;;;;;;;4.20;1.13;;;;;;;12.29;65.20;100732.06;4878444;28;97330;-48
2022/09/18 03:05:43;;;;;;;2.83;0.93;;;;;;;12.27;65.06;100740.09;4877022;28;96915;-49
2022/09/18 03:08:09;;;;;;;3.80;0.90;;;;;;;12.28;65.03;100747.84;4889366;28;98777;-48
2022/09/18 03:10:34;;;;;;;2.97;1.10;;;;;;;12.30;64.90;100753.59;4881917;28;97367;-49
2022/09/18 03:13:00;;;;;;;2.93;0.70;;;;;;;12.29;65.24;100746.59;4877270;28;97034;-49
2022/09/18 03:15:25;;;;;;;1.67;0.67;;;;;;;12.29;65.12;100751.38;4890000;28;97208;-49
2022/09/18 03:17:51;;;;;;;3.73;0.90;;;;;;;12.25;64.89;100748.88;4890986;28;98300;-48
2022/09/18 03:20:16;;;;;;;5.63;0.80;;;;;;;12.23;65.21;100747.84;4875360;28;98002;-48
2022/09/18 03:22:41;;;;;;;1.23;0.63;;;;;;;12.23;65.17;100747.84;4895002;28;96864;-49
2022/09/18 03:25:07;;;;;;;1.20;0.77;;;;;;;12.21;65.07;100742.81;4886165;28;101953;-49
2022/09/18 03:27:33;;;;;;;4.53;0.60;;;;;;;12.20;65.06;100749.59;4875753;28;98337;-48
2022/09/18 03:29:58;;;;;;;2.23;0.60;;;;;;;12.18;65.27;100740.31;4885717;28;97916;-49
2022/09/18 03:32:23;;;;;;;1.63;0.70;;;;;;;12.18;64.97;100740.31;4881144;28;97912;-48
2022/09/18 03:34:49;;;;;;;0.80;0.60;;;;;;;12.15;65.30;100738.56;4864481;28;118451;-49
2022/09/18 03:37:14;;;;;;;2.67;0.83;;;;;;;12.15;65.09;100741.31;4879118;28;97606;-48
2022/09/18 03:39:39;;;;;;;3.07;0.77;;;;;;;12.14;65.06;100743.34;4874731;28;97253;-48
2022/09/18 03:42:05;;;;;;;1.30;0.70;;;;;;;12.12;65.23;100736.81;4889674;28;97390;-48
2022/09/18 03:44:30;;;;;;;2.40;0.70;;;;;;;12.12;65.06;100734.81;4889464;28;97696;-49
2022/09/18 03:46:56;;;;;;;3.13;1.17;;;;;;;12.11;65.25;100730.53;4869771;28;98678;-48
2022/09/18 03:49:21;;;;;;;1.63;0.70;;;;;;;12.11;65.28;100736.06;4893456;28;99145;-51
2022/09/18 03:51:47;;;;;;;6.67;1.10;;;;;;;12.10;65.03;100729.03;4889666;28;96800;-48
2022/09/18 03:54:13;;;;;;;5.60;0.77;;;;;;;12.09;65.24;100735.06;4874290;28;109246;-49
2022/09/18 03:56:39;;;;;;;5.37;0.87;;;;;;;12.08;65.43;100742.56;4888552;28;97259;-50
2022/09/18 03:59:04;;;;;;;4.03;0.87;;;;;;;12.09;65.15;100735.06;4885853;28;97061;-47
2022/09/18 04:01:30;;;;;;;3.97;0.60;;;;;;;12.08;65.26;100731.53;4875608;28;99427;-47
2022/09/18 04:03:55;;;;;;;1.87;0.43;;;;;;;12.09;65.06;100737.81;4884901;28;99516;-47
2022/09/18 04:06:21;;;;;;;8.43;0.90;;;;;;;12.08;65.33;100728.78;4880683;28;96962;-48
2022/09/18 04:08:46;;;;;;;4.67;0.70;;;;;;;12.08;65.06;100730.81;4879413;28;97448;-47
2022/09/18 04:11:11;;;;;;;1.17;0.70;;;;;;;12.08;65.08;100733.56;4889911;28;97004;-48
2022/09/18 04:13:37;;;;;;;3.40;0.63;;;;;;;12.06;65.27;100736.06;4870263;28;97871;-47
2022/09/18 04:16:02;;;;;;;5.40;1.50;;;;;;;12.09;65.11;100735.06;4888158;28;97076;-48
2022/09/18 04:18:28;;;;;;;3.27;0.67;;;;;;;12.08;65.20;100733.56;4888087;28;99396;-48
2022/09/18 04:20:53;;;;;;;2.73;0.73;;;;;;;12.08;65.14;100734.28;4872821;28;97232;-48
2022/09/18 04:23:19;;;;;;;2.20;0.50;;;;;;;12.09;65.32;100724.78;4892688;28;98675;-48
2022/09/18 04:25:44;;;;;;;3.27;0.60;;;;;;;12.09;65.22;100735.06;4893720;28;97405;-48
2022/09/18 04:28:10;;;;;;;1.10;0.83;;;;;;;12.09;65.08;100732.28;4878520;28;97008;-48
2022/09/18 04:30:36;;;;;;;3.20;0.60;;;;;;;12.09;65.10;100733.06;4898063;28;97068;-48
2022/09/18 04:33:01;;;;;;;8.80;0.67;;;;;;;12.08;65.29;100734.28;4893596;28;97295;-48
2022/09/18 04:35:27;;;;;;;1.63;0.70;;;;;;;12.08;65.29;100730.81;4876271;28;97096;-49
2022/09/18 04:37:53;;;;;;;1.60;0.67;;;;;;;12.07;65.13;100735.56;4895299;28;98135;-48
2022/09/18 04:40:18;;;;;;;2.60;0.90;;;;;;;12.08;65.13;100742.56;4874910;28;97098;-49
2022/09/18 04:42:43;;;;;;;1.90;0.60;;;;;;;12.08;65.14;100741.84;4888595;28;97639;-49
2022/09/18 04:45:09;;;;;;;2.93;0.60;;;;;;;12.07;65.08;100732.81;4900154;28;107361;-49
2022/09/18 04:47:35;;;;;;;1.37;0.60;;;;;;;12.08;65.09;100733.56;4879326;28;97426;-49
2022/09/18 04:50:00;;;;;;;2.63;0.97;;;;;;;12.07;65.13;100740.31;4888046;28;97349;-48
2022/09/18 04:52:26;;;;;;;5.87;0.67;;;;;;;12.07;65.18;100740.31;4884832;28;102860;-48
2022/09/18 04:54:51;;;;;;;3.03;1.20;;;;;;;12.06;65.10;100736.06;4883137;28;97580;-49
2022/09/18 04:57:16;;;;;;;3.80;0.70;;;;;;;12.07;65.24;100729.28;4889294;28;96999;-49
2022/09/18 04:59:42;;;;;;;1.77;1.00;;;;;;;12.08;65.03;100733.56;4893801;28;97172;-49
2022/09/18 05:02:07;;;;;;;2.37;0.57;;;;;;;12.07;64.96;100737.56;4875290;28;109606;-49
2022/09/18 05:04:32;;;;;;;3.00;0.93;;;;;;;12.07;65.11;100730.03;4890415;28;104671;-48
2022/09/18 05:06:58;;;;;;;2.17;0.87;;;;;;;12.07;65.24;100732.03;4887817;28;97006;-48
2022/09/18 05:09:23;;;;;;;7.60;0.93;;;;;;;12.09;65.21;100733.06;4877635;28;97315;-48
2022/09/18 05:11:48;;;;;;;2.67;0.80;;;;;;;12.07;65.06;100729.28;4878775;28;115189;-48
2022/09/18 05:14:14;;;;;;;5.77;1.10;;;;;;;12.07;65.08;100730.03;4868712;28;101863;-48
2022/09/18 05:16:39;;;;;;;3.73;0.73;;;;;;;12.05;65.18;100735.31;4885315;28;96873;-48
2022/09/18 05:19:04;;;;;;;1.33;0.53;;;;;;;12.07;65.07;100732.03;4893948;28;97191;-48
2022/09/18 05:21:30;;;;;;;0.90;0.60;;;;;;;12.07;65.06;100729.28;4873881;28;112182;-48
2022/09/18 05:23:55;;;;;;;0.70;0.53;;;;;;;12.10;65.22;100733.81;4890527;28;110417;-48
2022/09/18 05:26:21;;;;;;;3.83;0.90;;;;;;;12.09;65.06;100724.03;4890517;28;97423;-48
2022/09/18 05:28:50;;;;;;;4.20;0.80;;;;;;;12.13;65.07;100724.53;4880676;28;97019;-48
2022/09/18 05:31:16;;;;;;;5.43;0.70;;;;;;;12.15;65.06;100727.53;4893848;28;103664;-49
2022/09/18 05:33:41;;;;;;;1.10;0.60;;;;;;;12.17;64.96;100733.28;4890689;28;110589;-48
2022/09/18 05:36:07;;;;;;;2.80;0.60;;;;;;;12.16;65.19;100731.81;4875224;28;96812;-47
2022/09/18 05:38:32;;;;;;;0.70;0.40;;;;;;;12.16;64.99;100734.56;4890434;28;97383;-48
2022/09/18 05:41:02;;;;;;;6.30;0.93;;;;;;;12.18;65.19;100735.56;4876412;28;96837;-49
2022/09/18 05:43:28;;;;;;;2.70;0.70;;;;;;;12.16;65.09;100727.03;4895610;28;97396;-48
2022/09/18 05:45:54;;;;;;;1.00;0.60;;;;;;;12.18;65.03;100730.06;4893787;28;97361;-48
2022/09/18 05:48:19;;;;;;;2.97;0.90;;;;;;;12.19;65.31;100736.31;4869177;28;96949;-48
2022/09/18 05:50:45;;;;;;;5.03;0.90;;;;;;;12.21;65.24;100734.53;4887584;28;115670;-48
2022/09/18 05:53:15;;;;;;;0.80;0.73;;;;;;;12.23;65.21;100742.34;4889939;28;97816;-48
2022/09/18 05:55:41;;;;;;;3.90;1.00;;;;;;;12.24;64.93;100743.84;4877542;28;97210;-48
2022/09/18 05:58:11;;;;;;;6.10;0.93;;;;;;;12.26;65.07;100741.31;4880080;28;97485;-48
2022/09/18 06:00:37;;;;;;;4.30;1.10;;;;;;;12.26;65.08;100747.59;4874338;28;97601;-48
2022/09/18 06:03:05;;;;;;;2.70;1.10;;;;;;;12.29;64.99;100743.09;4887524;28;98482;-48
2022/09/18 06:05:32;;;;;;;4.80;1.63;;;;;;;12.31;65.17;100746.84;4894065;28;97131;-48
2022/09/18 06:07:59;;;;;;;2.70;1.00;;;;;;;12.34;65.05;100743.06;4885376;28;97546;-48
2022/09/18 06:10:24;;;;;;;2.30;0.70;;;;;;;12.38;65.20;100731.81;4883541;28;97582;-48
2022/09/18 06:12:50;;;;;;;6.00;0.93;;;;;;;12.42;65.02;100729.53;4882583;28;97628;-49
2022/09/18 06:15:16;;;;;;;3.53;0.70;;;;;;;12.44;64.85;100743.59;4890326;28;97501;-48
2022/09/18 06:17:41;;;;;;;3.93;1.00;;;;;;;12.44;65.15;100729.78;4892442;28;98441;-48
2022/09/18 06:20:08;;;;;;;1.70;0.87;;;;;;;12.49;65.20;100735.28;4872605;28;98107;-48
2022/09/18 06:22:35;;;;;;;1.50;0.70;;;;;;;12.51;64.92;100735.56;4889067;28;97196;-49
2022/09/18 06:25:01;;;;;;;3.13;1.30;;;;;;;12.56;65.21;100736.78;4885732;28;97235;-48
2022/09/18 06:27:26;;;;;;;3.33;1.00;;;;;;;12.61;65.11;100739.56;4870102;28;96885;-48
2022/09/18 06:29:52;;;;;;;5.27;0.90;;;;;;;12.63;65.36;100748.06;4892200;28;97217;-48
2022/09/18 06:32:19;;;;;;;3.13;1.00;;;;;;;12.65;65.40;100744.81;4890681;28;97513;-48
2022/09/18 06:34:44;;;;;;;3.43;0.60;;;;;;;12.68;65.41;100732.78;4873669;28;97335;-49
2022/09/18 06:37:11;;;;;;;1.83;0.70;;;;;;;12.66;65.51;100735.28;4884911;28;96728;-49
2022/09/18 06:39:37;;;;;;;3.90;0.80;;;;;;;12.66;65.56;100735.28;4873755;28;98608;-48
2022/09/18 06:42:02;;;;;;;7.67;0.60;;;;;;;12.68;65.47;100739.06;4891741;28;96995;-49
2022/09/18 06:44:28;;;;;;;2.60;0.50;;;;;;;12.74;65.58;100733.50;4892504;28;96764;-49
2022/09/18 06:46:53;;;;;;;2.23;0.80;;;;;;;12.78;65.52;100747.78;4871110;28;101538;-47
2022/09/18 06:49:18;;;;;;;2.67;0.80;;;;;;;12.86;65.62;100742.53;4889611;28;107611;-49
2022/09/18 06:51:47;;;;;;;3.73;0.70;;;;;;;12.92;65.54;100740.50;4890501;28;97785;-49
2022/09/18 06:54:13;;;;;;;1.50;0.50;;;;;;;12.98;65.44;100749.50;4871249;28;97557;-48
2022/09/18 06:56:39;;;;;;;7.60;1.13;;;;;;;13.05;65.35;100744.25;4887469;28;97429;-49
2022/09/18 06:59:04;;;;;;;4.20;0.80;;;;;;;13.10;65.25;100742.75;4875187;28;97724;-48
2022/09/18 07:01:29;;;;;;;2.40;0.90;;;;;;;13.12;65.35;100743.75;4877830;28;108876;-47
2022/09/18 07:03:55;;;;;;;7.30;0.97;;;;;;;13.15;65.27;100742.72;4891056;28;97279;-49
2022/09/18 07:06:20;;;;;;;1.23;0.50;;;;;;;13.21;65.30;100743.47;4866561;28;97125;-48
2022/09/18 07:08:45;;;;;;;3.17;0.70;;;;;;;13.25;65.43;100746.69;4891426;28;97567;-48
2022/09/18 07:11:11;;;;;;;2.77;0.90;;;;;;;13.31;65.28;100747.44;4894711;28;97084;-48
2022/09/18 07:13:36;;;;;;;4.50;0.80;;;;;;;13.35;65.34;100750.66;4873934;28;105513;-48
2022/09/18 07:16:02;;;;;;;5.97;0.83;;;;;;;13.39;65.41;100744.88;4894071;28;99392;-49
2022/09/18 07:18:28;;;;;;;3.10;0.80;;;;;;;13.42;65.38;100744.63;4892034;28;97916;-48
2022/09/18 07:20:53;;;;;;;5.60;0.70;;;;;;;13.44;65.29;100742.09;4874082;28;97226;-50
2022/09/18 07:23:19;;;;;;;2.10;0.80;;;;;;;13.46;65.28;100738.81;4884490;28;97068;-48
2022/09/18 07:25:45;;;;;;;3.40;1.37;;;;;;;13.51;65.27;100738.03;4896087;28;97158;-49
2022/09/18 07:28:11;;;;;;;4.73;1.00;;;;;;;13.61;65.41;100744.03;4874632;28;97577;-48
2022/09/18 07:30:38;;;;;;;3.20;0.90;;;;;;;13.68;65.37;100733.16;4888459;28;97287;-48
2022/09/18 07:33:05;;;;;;;9.53;1.10;;;;;;;13.78;65.35;100733.63;4877386;28;97211;-48
2022/09/18 07:35:31;;;;;;;4.13;0.80;;;;;;;13.88;65.31;100729.28;4887610;28;97246;-49
2022/09/18 07:38:00;;;;;;;8.60;1.20;;;;;;;13.94;65.26;100727.22;4890292;28;97611;-49
2022/09/18 07:40:26;;;;;;;3.23;1.27;;;;;;;14.00;65.20;100722.41;4870279;28;97214;-49
2022/09/18 07:43:01;;;;;;;3.17;0.93;;;;;;;14.07;65.20;100724.59;4883217;28;97436;-49
2022/09/18 07:45:27;;;;;;;4.47;0.90;;;;;;;14.11;65.05;100716.78;4872613;28;96998;-48
2022/09/18 07:47:53;;;;;;;3.90;0.93;;;;;;;14.20;65.27;100728.28;4878611;28;97861;-49
2022/09/18 07:50:18;;;;;;;3.50;1.20;;;;;;;14.27;64.94;100726.97;4889699;28;97583;-48
2022/09/18 07:52:53;;;;;;;7.40;1.10;;;;;;;14.32;65.08;100725.47;4871061;28;97261;-49
2022/09/18 07:55:21;;;;;;;2.07;0.80;;;;;;;14.32;64.95;100723.44;4885797;28;97020;-53
2022/09/18 07:57:52;;;;;;;8.30;1.10;;;;;;;14.34;65.03;100736.75;4876248;28;97219;-47
2022/09/18 08:00:17;;;;;;;7.50;1.10;;;;;;;14.36;65.19;100734.97;4882605;28;97292;-49
2022/09/18 08:02:42;;;;;;;3.50;0.90;;;;;;;14.37;65.20;100721.91;4890290;28;97382;-48
2022/09/18 08:05:08;;;;;;;5.60;1.50;;;;;;;14.38;65.06;100723.38;4868331;28;97438;-48
2022/09/18 08:07:33;;;;;;;3.87;0.60;;;;;;;14.36;64.89;100721.13;4892052;28;97075;-48
2022/09/18 08:09:58;;;;;;;6.00;0.70;;;;;;;14.34;64.90;100717.38;4885134;28;101882;-48
2022/09/18 08:12:24;;;;;;;1.50;0.60;;;;;;;14.34;64.90;100723.69;4880367;28;103167;-49
2022/09/18 08:14:50;;;;;;;1.17;0.70;;;;;;;14.39;65.07;100728.41;4885198;28;97230;-49
2022/09/18 08:17:15;;;;;;;2.47;0.90;;;;;;;14.43;64.92;100722.59;4876283;28;97312;-48
2022/09/18 08:19:41;;;;;;;9.70;1.17;;;;;;;14.46;64.91;100730.59;4889109;28;102220;-48
2022/09/18 08:22:06;;;;;;;2.30;0.90;;;;;;;14.51;64.87;100727.03;4881891;28;97243;-47
2022/09/18 08:24:32;;;;;;;1.50;0.60;;;;;;;14.55;64.85;100724.72;4877171;28;97110;-47
2022/09/18 08:27:02;;;;;;;3.47;0.60;;;;;;;14.57;64.60;100727.72;4872303;28;97405;-50
2022/09/18 08:29:31;;;;;;;0.70;0.50;;;;;;;14.62;64.52;100732.47;4877711;28;97761;-48
2022/09/18 08:31:56;;;;;;;4.50;0.70;;;;;;;14.69;64.65;100734.69;4874465;28;97701;-48
2022/09/18 08:34:22;;;;;;;2.40;0.67;;;;;;;14.73;64.54;100735.13;4884027;28;96971;-49
2022/09/18 08:36:47;;;;;;;2.93;0.80;;;;;;;14.73;64.27;100732.38;4881116;28;97702;-48
2022/09/18 08:39:12;;;;;;;7.90;0.90;;;;;;;14.75;64.33;100735.38;4883030;28;103016;-48
2022/09/18 08:42:02;;;;;;;2.50;0.50;;;;;;;14.78;64.39;100750.97;4880720;28;96900;-48
2022/09/18 08:44:30;;;;;;;4.00;0.60;;;;;;;14.94;64.51;100744.47;4882613;28;96814;-48
2022/09/18 08:47:06;;;;;;;2.00;0.60;;;;;;;15.13;64.16;100730.69;4887084;28;97741;-48
2022/09/18 08:49:46;;;;;;;1.50;0.87;;;;;;;15.27;63.97;100723.19;4887434;28;103760;-48
2022/09/18 08:52:15;;;;;;;1.40;0.70;;;;;;;15.42;63.89;100732.56;4872672;28;98774;-48
2022/09/18 08:55:00;;;;;;;1.07;0.57;;;;;;;15.43;63.61;100731.34;4892741;28;96898;-49
2022/09/18 08:57:37;;;;;;;4.10;0.50;;;;;;;15.42;63.68;100729.78;4871373;28;101899;-48
2022/09/18 09:00:11;;;;;;;1.33;0.50;;;;;;;15.39;63.70;100724.56;4886490;28;96953;-48
2022/09/18 09:02:44;;;;;;;3.97;0.80;;;;;;;15.44;63.77;100724.50;4861983;28;101505;-49
2022/09/18 09:05:13;;;;;;;2.00;0.60;;;;;;;15.51;63.53;100723.16;4897887;28;97517;-49
2022/09/18 09:08:01;;;;;;;2.67;1.13;;;;;;;15.57;63.30;100721.06;4879523;28;97718;-48
2022/09/18 09:10:55;;;;;;;2.77;0.60;;;;;;;15.70;63.01;100713.56;4880637;28;97330;-49
2022/09/18 09:13:54;;;;;;;3.60;0.80;;;;;;;15.72;62.65;100705.47;4889225;28;97543;-48
2022/09/18 09:16:50;;;;;;;1.83;0.70;;;;;;;15.71;62.57;100715.06;4877622;28;97506;-49
2022/09/18 09:19:32;;;;;;;1.13;0.50;;;;;;;15.74;62.66;100713.25;4878866;28;102032;-48
2022/09/18 09:22:00;;;;;;;5.60;0.80;;;;;;;15.87;63.32;100709.78;4883782;28;101424;-49
2022/09/18 09:24:32;;;;;;;2.50;0.90;;;;;;;16.00;62.83;100702.28;4885067;28;96842;-48
2022/09/18 09:27:04;;;;;;;5.10;1.03;;;;;;;16.16;63.00;100703.28;4889690;28;96980;-49
2022/09/18 09:29:36;;;;;;;1.00;0.50;;;;;;;16.29;62.81;100704.03;4869056;28;98604;-48
2022/09/18 09:32:40;;;;;;;1.90;0.80;;;;;;;16.34;61.87;100696.91;4887159;28;97320;-48
2022/09/18 09:35:15;;;;;;;3.17;0.50;;;;;;;16.32;62.39;100700.22;4886525;28;98439;-48
2022/09/18 09:37:45;;;;;;;2.03;0.63;;;;;;;16.23;62.51;100708.94;4869728;28;97595;-48
2022/09/18 09:40:16;;;;;;;3.17;0.80;;;;;;;16.16;62.24;100704.00;4887598;28;97902;-48
2022/09/18 09:43:19;;;;;;;3.70;1.00;;;;;;;16.08;62.61;100703.16;4868351;28;97235;-48
2022/09/18 09:45:50;;;;;;;1.57;0.50;;;;;;;15.99;62.44;100692.44;4890715;28;96852;-49
2022/09/18 09:48:36;;;;;;;5.50;0.60;;;;;;;15.97;62.86;100695.00;4884244;28;97208;-48
2022/09/18 09:51:24;;;;;;;2.80;0.53;;;;;;;15.97;63.08;100689.44;4877105;28;97301;-49
2022/09/18 09:53:54;;;;;;;1.43;0.53;;;;;;;15.98;63.28;100688.19;4893685;28;101783;-49
2022/09/18 09:56:52;;;;;;;3.33;1.00;;;;;;;16.01;63.06;100672.50;4888961;28;96803;-48
2022/09/18 09:59:36;;;;;;;4.17;0.60;;;;;;;15.99;63.14;100667.47;4867226;28;97502;-49
2022/09/18 10:02:23;;;;;;;4.97;0.90;;;;;;;15.93;63.06;100658.47;4886590;28;100416;-49
2022/09/18 10:05:15;;;;;;;1.90;0.40;;;;;;;15.89;62.71;100669.16;4882618;28;101176;-48
2022/09/18 10:07:48;;;;;;;1.97;0.53;;;;;;;15.92;63.01;100656.25;4887021;28;97155;-48
2022/09/18 10:10:40;;;;;;;3.40;0.80;;;;;;;15.96;62.93;100657.44;4867236;28;97119;-48
2022/09/18 10:13:13;;;;;;;3.30;1.03;;;;;;;16.00;62.55;100652.31;4866969;28;102271;-49
2022/09/18 10:15:45;;;;;;;4.20;1.00;;;;;;;16.05;62.45;100654.25;4865534;28;96886;-49
2022/09/18 10:18:17;;;;;;;1.00;0.67;;;;;;;16.10;62.38;100645.06;4879208;28;97365;-48
2022/09/18 10:20:46;;;;;;;1.30;0.50;;;;;;;16.20;62.45;100643.41;4868926;28;96966;-48
2022/09/18 10:23:37;;;;;;;1.00;0.60;;;;;;;16.31;61.33;100640.44;4892706;28;96893;-48
2022/09/18 10:26:03;;;;;;;2.63;0.50;;;;;;;16.36;62.24;100642.34;4869331;28;97210;-48
2022/09/18 10:28:29;;;;;;;2.80;0.50;;;;;;;16.43;61.99;100638.19;4881173;28;96941;-48
2022/09/18 10:31:09;;;;;;;2.40;0.70;;;;;;;16.57;61.56;100650.06;4884770;28;97785;-49
2022/09/18 10:33:44;;;;;;;1.03;0.50;;;;;;;16.75;61.28;100657.56;4884190;28;97961;-48
2022/09/18 10:36:18;;;;;;;0.90;0.40;;;;;;;16.93;60.73;100651.13;4869433;28;97777;-48
2022/09/18 10:38:44;;;;;;;1.00;0.70;;;;;;;16.97;61.07;100662.69;4889584;28;97373;-48
2022/09/18 10:41:15;;;;;;;0.70;0.43;;;;;;;16.99;61.02;100652.50;4870562;28;96985;-49
2022/09/18 10:44:06;;;;;;;1.70;0.67;;;;;;;16.94;58.92;100658.94;4884099;28;97255;-50
2022/09/18 10:46:34;;;;;;;1.33;0.47;;;;;;;16.93;60.87;100663.00;4881216;28;96845;-48
2022/09/18 10:49:19;;;;;;;0.80;0.60;;;;;;;16.88;59.77;100655.53;4886467;28;96876;-48
2022/09/18 10:51:45;;;;;;;1.07;0.80;;;;;;;16.86;60.79;100651.78;4869241;28;97175;-48
2022/09/18 10:54:14;;;;;;;1.90;0.50;;;;;;;16.86;60.29;100649.00;4886511;28;96719;-49
2022/09/18 10:56:40;;;;;;;1.30;0.60;;;;;;;16.87;60.61;100659.59;4867927;28;97297;-49
2022/09/18 10:59:27;;;;;;;2.87;0.73;;;;;;;16.83;59.67;100647.28;4884607;28;96881;-48
2022/09/18 11:02:02;;;;;;;1.30;0.53;;;;;;;16.76;59.75;100653.47;4868559;28;98265;-49
2022/09/18 11:04:28;;;;;;;3.03;0.70;;;;;;;16.66;60.42;100644.09;4890962;28;97748;-48
2022/09/18 11:06:55;;;;;;;2.20;0.50;;;;;;;16.60;60.58;100651.78;4869831;28;97845;-49
2022/09/18 11:09:31;;;;;;;3.83;0.73;;;;;;;16.53;60.07;100646.88;4882028;28;96720;-49
2022/09/18 11:11:56;;;;;;;1.47;0.77;;;;;;;16.44;60.68;100651.56;4883678;28;96636;-48
2022/09/18 11:14:25;;;;;;;3.90;0.50;;;;;;;16.36;60.52;100650.66;4870526;28;97641;-46
2022/09/18 11:16:56;;;;;;;3.17;0.50;;;;;;;16.27;60.61;100645.53;4889727;28;96868;-46
2022/09/18 11:19:33;;;;;;;1.97;0.70;;;;;;;16.21;60.58;100650.44;4874678;28;97262;-49
2022/09/18 11:22:04;;;;;;;1.90;0.60;;;;;;;16.11;61.04;100679.88;4880469;28;97069;-48
2022/09/18 11:24:35;;;;;;;3.70;1.00;;;;;;;15.96;61.13;100701.84;4874169;28;96827;-48
2022/09/18 11:27:03;;;;;;;1.17;0.50;;;;;;;15.80;61.56;100704.84;4896263;28;97338;-49
2022/09/18 11:29:29;;;;;;;1.93;0.60;;;;;;;15.70;61.85;100696.19;4877270;28;96713;-51
2022/09/18 11:32:03;;;;;;;1.33;0.80;;;;;;;15.61;61.98;100702.09;4886792;28;96948;-50
2022/09/18 11:34:33;;;;;;;1.40;0.60;;;;;;;15.48;62.10;100694.47;4898879;28;102311;-51
2022/09/18 11:37:04;;;;;;;2.93;0.80;;;;;;;15.41;62.21;100706.13;4875754;28;97354;-50
2022/09/18 11:39:36;;;;;;;1.80;0.60;;;;;;;15.28;62.37;100694.22;4883675;28;97346;-50